createdAt,value
2017-09-04T00:00:55.084Z,14.01
2017-09-04T00:01:56.510Z,13.84
2017-09-04T00:02:57.921Z,13.56
2017-09-04T00:03:59.341Z,13.62
2017-09-04T00:05:00.759Z,13.51
2017-09-04T00:06:02.188Z,13.46
2017-09-04T00:07:03.600Z,13.29
2017-09-04T00:08:05.024Z,13.40
2017-09-04T00:09:06.455Z,13.52
2017-09-04T00:10:07.873Z,13.59
2017-09-04T00:11:09.297Z,13.58
2017-09-04T00:12:10.721Z,13.70
2017-09-04T00:13:12.144Z,13.73
2017-09-04T00:14:13.561Z,13.46
2017-09-04T00:15:14.979Z,13.51
2017-09-04T00:16:16.394Z,13.49
2017-09-04T00:17:17.809Z,13.49
2017-09-04T00:18:19.228Z,13.56
2017-09-04T00:19:20.655Z,13.47
2017-09-04T00:20:22.082Z,13.40
2017-09-04T00:21:23.496Z,13.43
2017-09-04T00:22:24.912Z,13.22
2017-09-04T00:23:26.329Z,13.40
2017-09-04T00:24:27.763Z,13.40
2017-09-04T00:25:29.179Z,13.51
2017-09-04T00:26:30.600Z,13.54
2017-09-04T00:27:32.027Z,13.55
2017-09-04T00:28:33.446Z,13.47
2017-09-04T00:29:34.862Z,13.17
2017-09-04T00:30:36.278Z,13.09
2017-09-04T00:31:37.699Z,13.17
2017-09-04T00:32:39.116Z,13.15
2017-09-04T00:33:40.536Z,13.07
2017-09-04T00:34:41.957Z,13.20
2017-09-04T00:35:43.359Z,13.09
2017-09-04T00:36:44.782Z,13.12
2017-09-04T00:37:46.215Z,13.17
2017-09-04T00:38:47.625Z,13.12
2017-09-04T00:39:49.045Z,13.02
2017-09-04T00:40:50.471Z,13.02
2017-09-04T00:41:51.886Z,13.11
2017-09-04T00:42:53.301Z,12.92
2017-09-04T00:43:54.723Z,13.03
2017-09-04T00:44:56.150Z,12.93
2017-09-04T00:45:57.567Z,13.03
2017-09-04T00:46:58.987Z,12.97
2017-09-04T00:48:00.407Z,12.99
2017-09-04T00:49:01.830Z,13.04
2017-09-04T00:50:03.248Z,13.03
2017-09-04T00:51:04.678Z,13.24
2017-09-04T00:52:06.092Z,13.24
2017-09-04T00:53:07.505Z,13.40
2017-09-04T00:54:08.921Z,13.49
2017-09-04T00:55:10.338Z,13.44
2017-09-04T00:56:11.751Z,13.41
2017-09-04T00:57:13.171Z,13.36
2017-09-04T00:58:14.586Z,13.37
2017-09-04T00:59:16.010Z,13.51
2017-09-04T01:00:17.427Z,13.38
2017-09-04T01:01:18.848Z,13.30
2017-09-04T01:02:20.258Z,13.40
2017-09-04T01:03:21.673Z,13.52
2017-09-04T01:04:23.092Z,13.49
2017-09-04T01:05:24.509Z,13.30
2017-09-04T01:06:25.936Z,13.43
2017-09-04T01:07:27.363Z,13.47
2017-09-04T01:08:28.795Z,13.49
2017-09-04T01:09:30.208Z,13.29
2017-09-04T01:10:31.630Z,13.25
2017-09-04T01:11:33.049Z,13.46
2017-09-04T01:12:34.469Z,13.36
2017-09-04T01:13:35.886Z,13.49
2017-09-04T01:14:37.303Z,13.61
2017-09-04T01:15:38.724Z,13.58
2017-09-04T01:16:40.140Z,13.40
2017-09-04T01:17:41.558Z,13.46
2017-09-04T01:18:43.031Z,13.51
2017-09-04T01:19:44.458Z,13.55
2017-09-04T01:20:45.874Z,13.56
2017-09-04T01:21:47.296Z,13.69
2017-09-04T01:22:48.801Z,13.73
2017-09-04T01:23:50.214Z,13.73
2017-09-04T01:24:51.635Z,13.65
2017-09-04T01:25:53.059Z,13.71
2017-09-04T01:26:54.485Z,13.51
2017-09-04T01:27:55.904Z,13.52
2017-09-04T01:28:57.312Z,13.49
2017-09-04T01:29:58.726Z,13.52
2017-09-04T01:31:00.155Z,13.59
2017-09-04T01:32:02.527Z,13.46
2017-09-04T01:33:03.948Z,13.40
2017-09-04T01:34:05.366Z,13.41
2017-09-04T01:35:06.787Z,13.41
2017-09-04T01:36:08.203Z,13.24
2017-09-04T01:37:09.622Z,13.51
2017-09-04T01:38:11.052Z,13.40
2017-09-04T01:39:12.468Z,13.47
2017-09-04T01:40:13.890Z,13.52
2017-09-04T01:41:15.303Z,13.58
2017-09-04T01:42:16.729Z,13.51
2017-09-04T01:43:18.147Z,13.51
2017-09-04T01:44:19.569Z,13.49
2017-09-04T01:45:20.989Z,13.27
2017-09-04T01:46:22.400Z,13.14
2017-09-04T01:47:23.815Z,13.17
2017-09-04T01:48:25.229Z,13.29
2017-09-04T01:49:26.652Z,13.33
2017-09-04T01:50:28.063Z,13.24
2017-09-04T01:51:29.473Z,13.49
2017-09-04T01:52:30.889Z,13.61
2017-09-04T01:53:32.321Z,13.62
2017-09-04T01:54:33.742Z,13.65
2017-09-04T01:55:35.188Z,13.74
2017-09-04T01:56:36.577Z,13.62
2017-09-04T01:57:37.996Z,13.44
2017-09-04T01:58:39.421Z,13.61
2017-09-04T01:59:40.833Z,13.62
2017-09-04T02:00:42.253Z,13.47
2017-09-04T02:01:43.674Z,13.55
2017-09-04T02:02:45.092Z,13.59
2017-09-04T02:03:46.507Z,13.47
2017-09-04T02:04:47.926Z,13.49
2017-09-04T02:05:49.354Z,13.44
2017-09-04T02:06:50.772Z,13.40
2017-09-04T02:07:52.187Z,13.37
2017-09-04T02:08:53.607Z,13.29
2017-09-04T02:09:55.034Z,13.44
2017-09-04T02:10:56.453Z,13.41
2017-09-04T02:11:57.869Z,13.22
2017-09-04T02:12:59.291Z,13.24
2017-09-04T02:14:00.702Z,13.20
2017-09-04T02:15:02.114Z,13.11
2017-09-04T02:16:03.540Z,13.25
2017-09-04T02:17:04.959Z,13.21
2017-09-04T02:18:06.377Z,13.15
2017-09-04T02:19:07.785Z,13.29
2017-09-04T02:20:09.224Z,13.38
2017-09-04T02:21:10.638Z,13.40
2017-09-04T02:22:12.059Z,13.40
2017-09-04T02:23:13.488Z,13.29
2017-09-04T02:24:14.909Z,13.27
2017-09-04T02:25:16.332Z,12.92
2017-09-04T02:26:17.760Z,12.99
2017-09-04T02:27:19.189Z,12.93
2017-09-04T02:28:20.607Z,12.92
2017-09-04T02:29:22.019Z,12.87
2017-09-04T02:30:23.435Z,12.88
2017-09-04T02:31:24.850Z,12.78
2017-09-04T02:32:26.272Z,12.77
2017-09-04T02:33:27.692Z,12.56
2017-09-04T02:34:29.107Z,12.63
2017-09-04T02:35:30.522Z,12.77
2017-09-04T02:36:31.943Z,12.84
2017-09-04T02:37:33.360Z,12.85
2017-09-04T02:38:34.777Z,12.88
2017-09-04T02:39:36.202Z,12.71
2017-09-04T02:40:37.616Z,12.74
2017-09-04T02:41:39.032Z,12.92
2017-09-04T02:42:40.445Z,12.95
2017-09-04T02:43:41.867Z,12.89
2017-09-04T02:44:43.324Z,12.78
2017-09-04T02:45:44.792Z,13.00
2017-09-04T02:46:46.214Z,13.06
2017-09-04T02:47:47.630Z,13.02
2017-09-04T02:48:49.101Z,12.96
2017-09-04T02:49:50.521Z,13.12
2017-09-04T02:50:51.935Z,13.14
2017-09-04T02:51:53.456Z,12.92
2017-09-04T02:52:54.871Z,12.85
2017-09-04T02:53:56.285Z,12.87
2017-09-04T02:54:57.704Z,12.87
2017-09-04T02:55:59.883Z,12.93
2017-09-04T02:57:01.304Z,12.74
2017-09-04T02:58:02.724Z,12.74
2017-09-04T02:59:04.142Z,12.69
2017-09-04T03:00:05.557Z,12.87
2017-09-04T03:01:06.981Z,12.93
2017-09-04T03:02:08.399Z,12.78
2017-09-04T03:03:09.815Z,12.93
2017-09-04T03:04:11.239Z,12.92
2017-09-04T03:05:12.658Z,12.88
2017-09-04T03:06:14.124Z,12.71
2017-09-04T03:07:15.501Z,12.85
2017-09-04T03:08:16.920Z,12.79
2017-09-04T03:09:18.338Z,12.71
2017-09-04T03:10:19.796Z,12.92
2017-09-04T03:11:21.897Z,12.88
2017-09-04T03:12:23.328Z,12.95
2017-09-04T03:13:24.755Z,12.93
2017-09-04T03:14:26.195Z,12.87
2017-09-04T03:15:27.614Z,12.85
2017-09-04T03:16:29.035Z,13.14
2017-09-04T03:17:30.457Z,13.17
2017-09-04T03:18:31.868Z,13.12
2017-09-04T03:19:33.379Z,13.11
2017-09-04T03:20:34.798Z,13.29
2017-09-04T03:21:36.219Z,13.22
2017-09-04T03:22:37.638Z,13.30
2017-09-04T03:23:39.063Z,13.29
2017-09-04T03:24:40.485Z,13.27
2017-09-04T03:25:41.903Z,13.18
2017-09-04T03:26:43.323Z,13.12
2017-09-04T03:27:44.748Z,12.97
2017-09-04T03:28:46.179Z,13.00
2017-09-04T03:29:47.597Z,13.00
2017-09-04T03:30:49.024Z,12.96
2017-09-04T03:31:50.441Z,13.00
2017-09-04T03:32:51.862Z,13.14
2017-09-04T03:33:53.280Z,12.99
2017-09-04T03:34:54.696Z,12.97
2017-09-04T03:35:56.117Z,13.07
2017-09-04T03:36:57.542Z,13.09
2017-09-04T03:37:58.957Z,13.21
2017-09-04T03:39:00.371Z,13.09
2017-09-04T03:40:01.789Z,13.20
2017-09-04T03:41:03.210Z,13.21
2017-09-04T03:42:04.631Z,13.07
2017-09-04T03:43:06.047Z,13.02
2017-09-04T03:44:07.464Z,12.99
2017-09-04T03:45:08.887Z,12.92
2017-09-04T03:46:10.304Z,12.88
2017-09-04T03:47:11.719Z,12.71
2017-09-04T03:48:13.140Z,12.78
2017-09-04T03:49:14.555Z,12.87
2017-09-04T03:50:15.989Z,12.89
2017-09-04T03:51:17.413Z,12.99
2017-09-04T03:52:18.836Z,12.81
2017-09-04T03:53:20.258Z,12.85
2017-09-04T03:54:21.677Z,12.87
2017-09-04T03:55:23.107Z,12.89
2017-09-04T03:56:24.532Z,12.88
2017-09-04T03:57:25.961Z,13.00
2017-09-04T03:58:27.385Z,12.95
2017-09-04T03:59:28.793Z,13.00
2017-09-04T04:00:30.213Z,13.24
2017-09-04T04:01:31.630Z,13.25
2017-09-04T04:02:33.047Z,13.30
2017-09-04T04:03:34.472Z,13.37
2017-09-04T04:04:35.888Z,13.18
2017-09-04T04:05:37.390Z,13.36
2017-09-04T04:06:38.899Z,13.21
2017-09-04T04:07:40.315Z,13.15
2017-09-04T04:08:41.736Z,13.15
2017-09-04T04:09:43.213Z,13.11
2017-09-04T04:10:44.626Z,12.97
2017-09-04T04:11:46.044Z,12.85
2017-09-04T04:12:47.525Z,12.97
2017-09-04T04:13:48.909Z,12.99
2017-09-04T04:14:50.339Z,12.89
2017-09-04T04:15:51.760Z,12.95
2017-09-04T04:16:53.308Z,13.03
2017-09-04T04:17:54.730Z,13.14
2017-09-04T04:18:56.152Z,12.95
2017-09-04T04:19:57.566Z,12.88
2017-09-04T04:20:59.029Z,12.93
2017-09-04T04:22:00.423Z,12.88
2017-09-04T04:23:01.840Z,12.93
2017-09-04T04:24:03.270Z,12.69
2017-09-04T04:25:04.688Z,12.63
2017-09-04T04:26:06.109Z,12.56
2017-09-04T04:27:07.528Z,12.66
2017-09-04T04:28:08.948Z,12.78
2017-09-04T04:29:10.361Z,12.78
2017-09-04T04:30:11.779Z,12.99
2017-09-04T04:31:13.204Z,12.99
2017-09-04T04:32:14.618Z,12.99
2017-09-04T04:33:16.034Z,13.24
2017-09-04T04:34:17.451Z,13.20
2017-09-04T04:35:18.878Z,13.17
2017-09-04T04:36:20.298Z,13.07
2017-09-04T04:37:21.711Z,13.12
2017-09-04T04:38:23.139Z,12.92
2017-09-04T04:39:24.559Z,12.81
2017-09-04T04:40:25.985Z,12.92
2017-09-04T04:41:27.408Z,13.02
2017-09-04T04:42:28.829Z,13.07
2017-09-04T04:43:30.248Z,13.07
2017-09-04T04:44:31.676Z,13.12
2017-09-04T04:45:33.099Z,12.97
2017-09-04T04:46:34.519Z,12.78
2017-09-04T04:47:35.939Z,12.79
2017-09-04T04:48:37.353Z,12.85
2017-09-04T04:49:38.769Z,12.79
2017-09-04T04:50:40.191Z,12.60
2017-09-04T04:51:41.600Z,12.60
2017-09-04T04:52:43.021Z,12.46
2017-09-04T04:53:44.442Z,12.44
2017-09-04T04:54:45.870Z,12.38
2017-09-04T04:55:47.290Z,12.46
2017-09-04T04:56:48.712Z,12.78
2017-09-04T04:57:50.133Z,12.69
2017-09-04T04:58:51.546Z,12.85
2017-09-04T04:59:52.958Z,12.92
2017-09-04T05:00:54.381Z,12.85
2017-09-04T05:01:55.801Z,12.85
2017-09-04T05:02:57.222Z,12.89
2017-09-04T05:03:58.636Z,12.74
2017-09-04T05:05:00.062Z,12.81
2017-09-04T05:06:01.480Z,12.79
2017-09-04T05:07:02.892Z,12.78
2017-09-04T05:08:04.314Z,12.81
2017-09-04T05:09:05.729Z,12.77
2017-09-04T05:10:07.156Z,12.87
2017-09-04T05:11:08.569Z,12.87
2017-09-04T05:12:09.988Z,12.88
2017-09-04T05:13:11.406Z,12.89
2017-09-04T05:14:12.826Z,12.89
2017-09-04T05:15:14.253Z,12.97
2017-09-04T05:16:15.669Z,12.92
2017-09-04T05:17:17.111Z,12.99
2017-09-04T05:18:18.543Z,13.00
2017-09-04T05:19:19.964Z,13.09
2017-09-04T05:20:21.379Z,13.04
2017-09-04T05:21:22.801Z,12.95
2017-09-04T05:22:24.222Z,13.04
2017-09-04T05:23:25.650Z,13.06
2017-09-04T05:24:27.110Z,13.21
2017-09-04T05:25:28.516Z,13.11
2017-09-04T05:26:29.932Z,12.96
2017-09-04T05:27:31.359Z,12.95
2017-09-04T05:28:32.785Z,12.96
2017-09-04T05:29:34.207Z,12.93
2017-09-04T05:30:35.624Z,12.99
2017-09-04T05:31:37.044Z,12.87
2017-09-04T05:32:38.463Z,12.81
2017-09-04T05:33:39.891Z,12.93
2017-09-04T05:34:41.312Z,12.95
2017-09-04T05:35:42.739Z,12.89
2017-09-04T05:36:44.160Z,12.77
2017-09-04T05:37:45.595Z,12.87
2017-09-04T05:38:47.006Z,12.81
2017-09-04T05:39:48.436Z,12.79
2017-09-04T05:40:49.849Z,12.78
2017-09-04T05:41:51.274Z,12.78
2017-09-04T05:42:52.703Z,13.06
2017-09-04T05:43:54.126Z,13.03
2017-09-04T05:44:55.551Z,13.12
2017-09-04T05:45:57.012Z,13.20
2017-09-04T05:46:58.446Z,13.21
2017-09-04T05:47:59.876Z,13.15
2017-09-04T05:49:01.297Z,13.14
2017-09-04T05:50:02.728Z,13.09
2017-09-04T05:51:04.158Z,13.12
2017-09-04T05:52:05.582Z,13.09
2017-09-04T05:53:07.009Z,13.21
2017-09-04T05:54:08.429Z,13.17
2017-09-04T05:55:09.855Z,13.37
2017-09-04T05:56:11.278Z,13.40
2017-09-04T05:57:12.716Z,13.52
2017-09-04T05:58:14.127Z,13.70
2017-09-04T05:59:15.543Z,13.77
2017-09-04T06:00:16.960Z,13.88
2017-09-04T06:01:18.383Z,13.88
2017-09-04T06:02:19.808Z,14.02
2017-09-04T06:03:21.234Z,13.98
2017-09-04T06:04:22.654Z,13.95
2017-09-04T06:05:24.076Z,14.01
2017-09-04T06:06:25.501Z,14.09
2017-09-04T06:07:26.937Z,14.04
2017-09-04T06:08:28.361Z,14.09
2017-09-04T06:09:29.792Z,13.98
2017-09-04T06:10:31.214Z,14.12
2017-09-04T06:11:32.646Z,14.12
2017-09-04T06:12:34.059Z,14.13
2017-09-04T06:13:35.487Z,14.24
2017-09-04T06:14:36.913Z,14.29
2017-09-04T06:15:38.334Z,14.31
2017-09-04T06:16:39.748Z,14.38
2017-09-04T06:17:41.177Z,14.46
2017-09-04T06:18:42.592Z,14.32
2017-09-04T06:19:44.025Z,14.47
2017-09-04T06:20:45.442Z,14.52
2017-09-04T06:21:46.861Z,14.52
2017-09-04T06:22:48.278Z,14.50
2017-09-04T06:23:49.701Z,14.29
2017-09-04T06:24:51.121Z,14.46
2017-09-04T06:25:52.553Z,14.52
2017-09-04T06:26:53.973Z,14.46
2017-09-04T06:27:55.393Z,14.57
2017-09-04T06:28:56.824Z,14.60
2017-09-04T06:29:58.250Z,14.64
2017-09-04T06:30:59.684Z,14.75
2017-09-04T06:32:01.109Z,14.64
2017-09-04T06:33:02.536Z,14.56
2017-09-04T06:34:03.958Z,14.68
2017-09-04T06:35:05.396Z,14.74
2017-09-04T06:36:06.823Z,14.84
2017-09-04T06:37:08.255Z,14.80
2017-09-04T06:38:09.683Z,14.88
2017-09-04T06:39:11.138Z,14.86
2017-09-04T06:40:12.570Z,14.90
2017-09-04T06:41:13.991Z,15.01
2017-09-04T06:42:15.499Z,15.01
2017-09-04T06:43:16.978Z,15.03
2017-09-04T06:44:18.403Z,15.11
2017-09-04T06:45:19.825Z,15.15
2017-09-04T06:46:21.249Z,15.28
2017-09-04T06:47:22.667Z,15.24
2017-09-04T06:48:24.091Z,15.21
2017-09-04T06:49:25.555Z,15.30
2017-09-04T06:50:26.979Z,15.35
2017-09-04T06:51:28.406Z,15.46
2017-09-04T06:52:29.822Z,15.52
2017-09-04T06:53:31.356Z,15.54
2017-09-04T06:54:32.773Z,15.51
2017-09-04T06:55:34.201Z,15.49
2017-09-04T06:56:35.625Z,15.52
2017-09-04T06:57:37.055Z,15.46
2017-09-04T06:58:38.492Z,15.48
2017-09-04T06:59:39.915Z,15.52
2017-09-04T07:00:41.374Z,15.60
2017-09-04T07:01:42.797Z,15.56
2017-09-04T07:02:44.212Z,15.59
2017-09-04T07:03:45.642Z,15.52
2017-09-04T07:04:47.064Z,15.63
2017-09-04T07:05:48.493Z,15.59
2017-09-04T07:06:49.914Z,15.61
2017-09-04T07:07:51.328Z,15.76
2017-09-04T07:08:52.749Z,15.70
2017-09-04T07:09:54.173Z,15.66
2017-09-04T07:10:55.593Z,15.64
2017-09-04T07:11:57.022Z,15.72
2017-09-04T07:12:58.442Z,15.79
2017-09-04T07:13:59.863Z,15.79
2017-09-04T07:15:01.283Z,15.81
2017-09-04T07:16:02.704Z,15.82
2017-09-04T07:17:04.121Z,15.99
2017-09-04T07:18:05.542Z,15.97
2017-09-04T07:19:06.967Z,16.06
2017-09-04T07:20:08.393Z,16.11
2017-09-04T07:21:09.813Z,16.27
2017-09-04T07:22:11.238Z,16.34
2017-09-04T07:23:12.670Z,16.50
2017-09-04T07:24:14.091Z,16.49
2017-09-04T07:25:15.506Z,16.40
2017-09-04T07:26:16.928Z,16.16
2017-09-04T07:27:18.355Z,16.22
2017-09-04T07:28:19.782Z,16.07
2017-09-04T07:29:21.212Z,16.23
2017-09-04T07:30:22.640Z,16.22
2017-09-04T07:31:24.061Z,16.15
2017-09-04T07:32:25.489Z,16.15
2017-09-04T07:33:26.910Z,16.35
2017-09-04T07:34:28.336Z,16.37
2017-09-04T07:35:29.752Z,16.50
2017-09-04T07:36:31.173Z,16.65
2017-09-04T07:37:32.592Z,16.60
2017-09-04T07:38:34.016Z,16.58
2017-09-04T07:39:35.444Z,16.73
2017-09-04T07:40:36.864Z,16.81
2017-09-04T07:41:38.297Z,16.77
2017-09-04T07:42:39.724Z,16.83
2017-09-04T07:43:41.150Z,17.22
2017-09-04T07:44:42.575Z,16.95
2017-09-04T07:45:43.997Z,17.10
2017-09-04T07:46:45.474Z,17.10
2017-09-04T07:47:46.898Z,17.17
2017-09-04T07:48:48.318Z,17.11
2017-09-04T07:49:49.747Z,17.22
2017-09-04T07:50:51.164Z,17.18
2017-09-04T07:51:52.602Z,17.20
2017-09-04T07:52:54.021Z,17.22
2017-09-04T07:53:55.492Z,17.38
2017-09-04T07:54:56.918Z,17.33
2017-09-04T07:55:58.339Z,17.35
2017-09-04T07:56:59.759Z,17.36
2017-09-04T07:58:01.181Z,17.48
2017-09-04T07:59:02.608Z,17.48
2017-09-04T08:00:04.036Z,17.66
2017-09-04T08:01:05.464Z,17.54
2017-09-04T08:02:06.885Z,17.50
2017-09-04T08:03:08.307Z,17.48
2017-09-04T08:04:09.725Z,17.66
2017-09-04T08:05:11.157Z,17.69
2017-09-04T08:06:12.592Z,17.66
2017-09-04T08:07:14.010Z,17.82
2017-09-04T08:08:15.430Z,17.84
2017-09-04T08:09:16.857Z,17.89
2017-09-04T08:10:18.288Z,17.82
2017-09-04T08:11:19.709Z,17.74
2017-09-04T08:12:21.141Z,17.87
2017-09-04T08:13:22.570Z,18.02
2017-09-04T08:14:23.985Z,18.00
2017-09-04T08:15:25.411Z,18.12
2017-09-04T08:16:26.830Z,18.09
2017-09-04T08:17:28.260Z,18.13
2017-09-04T08:18:29.691Z,18.27
2017-09-04T08:19:31.118Z,18.40
2017-09-04T08:20:32.542Z,18.36
2017-09-04T08:21:33.972Z,18.42
2017-09-04T08:22:35.391Z,18.47
2017-09-04T08:23:36.813Z,18.42
2017-09-04T08:24:38.227Z,18.47
2017-09-04T08:25:39.653Z,18.52
2017-09-04T08:26:41.070Z,18.58
2017-09-04T08:27:42.490Z,18.62
2017-09-04T08:28:43.917Z,18.77
2017-09-04T08:29:45.352Z,18.64
2017-09-04T08:30:46.802Z,18.68
2017-09-04T08:31:48.235Z,18.80
2017-09-04T08:32:49.655Z,18.77
2017-09-04T08:33:51.083Z,18.86
2017-09-04T08:34:52.504Z,18.77
2017-09-04T08:35:53.926Z,18.76
2017-09-04T08:36:55.350Z,18.86
2017-09-04T08:37:56.786Z,18.97
2017-09-04T08:38:58.212Z,18.95
2017-09-04T08:39:59.633Z,18.87
2017-09-04T08:41:01.062Z,18.94
2017-09-04T08:42:02.497Z,18.95
2017-09-04T08:43:03.928Z,19.17
2017-09-04T08:44:05.383Z,19.02
2017-09-04T08:45:06.906Z,19.10
2017-09-04T08:46:08.329Z,19.06
2017-09-04T08:47:09.755Z,19.11
2017-09-04T08:48:11.186Z,19.11
2017-09-04T08:49:12.617Z,19.29
2017-09-04T08:50:14.044Z,19.17
2017-09-04T08:51:15.465Z,19.13
2017-09-04T08:52:16.893Z,19.18
2017-09-04T08:53:18.321Z,19.33
2017-09-04T08:54:19.739Z,19.42
2017-09-04T08:55:21.161Z,19.46
2017-09-04T08:56:22.592Z,19.48
2017-09-04T08:57:24.021Z,19.38
2017-09-04T08:58:25.507Z,19.46
2017-09-04T08:59:26.938Z,19.48
2017-09-04T09:00:28.367Z,19.60
2017-09-04T09:01:29.790Z,19.68
2017-09-04T09:02:31.221Z,19.76
2017-09-04T09:03:32.647Z,19.88
2017-09-04T09:04:34.071Z,19.93
2017-09-04T09:05:35.502Z,19.60
2017-09-04T09:06:36.934Z,19.75
2017-09-04T09:07:38.355Z,19.68
2017-09-04T09:08:39.784Z,19.60
2017-09-04T09:09:41.208Z,19.70
2017-09-04T09:10:42.632Z,19.93
2017-09-04T09:11:44.060Z,19.87
2017-09-04T09:12:45.497Z,19.94
2017-09-04T09:13:46.942Z,19.94
2017-09-04T09:14:48.362Z,20.27
2017-09-04T09:15:49.781Z,20.16
2017-09-04T09:16:51.208Z,20.15
2017-09-04T09:17:52.641Z,20.27
2017-09-04T09:18:54.075Z,20.23
2017-09-04T09:19:55.510Z,20.25
2017-09-04T09:20:56.947Z,20.25
2017-09-04T09:21:58.376Z,20.41
2017-09-04T09:22:59.812Z,20.35
2017-09-04T09:24:01.231Z,20.47
2017-09-04T09:25:02.656Z,20.28
2017-09-04T09:26:04.084Z,20.39
2017-09-04T09:27:05.506Z,20.35
2017-09-04T09:28:06.933Z,20.47
2017-09-04T09:29:08.352Z,20.62
2017-09-04T09:30:09.785Z,20.65
2017-09-04T09:31:11.216Z,20.65
2017-09-04T09:32:12.644Z,20.79
2017-09-04T09:33:14.069Z,20.71
2017-09-04T09:34:15.494Z,20.80
2017-09-04T09:35:16.909Z,20.98
2017-09-04T09:36:18.343Z,20.86
2017-09-04T09:37:19.793Z,20.98
2017-09-04T09:38:21.216Z,20.98
2017-09-04T09:39:22.638Z,21.05
2017-09-04T09:40:24.062Z,20.99
2017-09-04T09:41:25.495Z,21.13
2017-09-04T09:42:26.931Z,21.16
2017-09-04T09:43:28.362Z,21.01
2017-09-04T09:44:29.789Z,21.14
2017-09-04T09:45:31.216Z,21.29
2017-09-04T09:46:32.641Z,21.26
2017-09-04T09:47:34.075Z,21.34
2017-09-04T09:48:35.513Z,21.26
2017-09-04T09:49:36.943Z,21.38
2017-09-04T09:50:38.360Z,21.44
2017-09-04T09:51:39.780Z,21.36
2017-09-04T09:52:41.216Z,21.36
2017-09-04T09:53:42.635Z,21.34
2017-09-04T09:54:44.067Z,21.14
2017-09-04T09:55:45.501Z,21.30
2017-09-04T09:56:46.930Z,21.44
2017-09-04T09:57:48.367Z,21.30
2017-09-04T09:58:49.797Z,21.53
2017-09-04T09:59:51.255Z,21.51
2017-09-04T10:00:52.687Z,21.46
2017-09-04T10:01:54.114Z,21.46
2017-09-04T10:02:55.539Z,21.57
2017-09-04T10:03:56.975Z,21.67
2017-09-04T10:04:58.418Z,21.83
2017-09-04T10:05:59.852Z,21.81
2017-09-04T10:07:01.296Z,21.75
2017-09-04T10:08:02.721Z,21.64
2017-09-04T10:09:04.177Z,21.74
2017-09-04T10:10:05.564Z,21.63
2017-09-04T10:11:06.996Z,21.45
2017-09-04T10:12:08.423Z,21.61
2017-09-04T10:13:09.849Z,21.71
2017-09-04T10:14:11.287Z,21.57
2017-09-04T10:15:12.713Z,21.74
2017-09-04T10:16:14.140Z,21.85
2017-09-04T10:17:15.565Z,21.92
2017-09-04T10:18:16.995Z,21.98
2017-09-04T10:19:18.434Z,22.01
2017-09-04T10:20:19.870Z,21.94
2017-09-04T10:21:21.300Z,21.97
2017-09-04T10:22:22.731Z,22.02
2017-09-04T10:23:24.164Z,22.10
2017-09-04T10:24:25.599Z,22.22
2017-09-04T10:25:27.041Z,22.32
2017-09-04T10:26:28.478Z,22.38
2017-09-04T10:27:29.918Z,22.52
2017-09-04T10:28:31.342Z,22.23
2017-09-04T10:29:32.778Z,22.56
2017-09-04T10:30:34.213Z,22.54
2017-09-04T10:31:35.647Z,22.50
2017-09-04T10:32:37.075Z,22.46
2017-09-04T10:33:38.495Z,22.75
2017-09-04T10:34:39.924Z,22.92
2017-09-04T10:35:41.346Z,22.75
2017-09-04T10:36:42.773Z,22.83
2017-09-04T10:37:44.200Z,22.80
2017-09-04T10:38:45.627Z,22.69
2017-09-04T10:39:47.068Z,22.75
2017-09-04T10:40:48.501Z,22.59
2017-09-04T10:41:49.932Z,22.60
2017-09-04T10:42:51.359Z,22.84
2017-09-04T10:43:52.791Z,22.77
2017-09-04T10:44:54.223Z,23.05
2017-09-04T10:45:55.655Z,22.92
2017-09-04T10:46:57.084Z,22.94
2017-09-04T10:47:58.511Z,23.31
2017-09-04T10:48:59.937Z,23.15
2017-09-04T10:50:01.362Z,23.53
2017-09-04T10:51:02.790Z,23.29
2017-09-04T10:52:04.222Z,23.64
2017-09-04T10:53:05.650Z,23.57
2017-09-04T10:54:07.078Z,23.39
2017-09-04T10:55:08.513Z,23.39
2017-09-04T10:56:09.935Z,23.62
2017-09-04T10:57:11.364Z,23.79
2017-09-04T10:58:12.790Z,23.80
2017-09-04T10:59:14.221Z,23.79
2017-09-04T11:00:15.654Z,23.68
2017-09-04T11:01:17.087Z,23.87
2017-09-04T11:02:18.526Z,24.02
2017-09-04T11:03:19.954Z,23.80
2017-09-04T11:04:21.402Z,24.19
2017-09-04T11:05:22.827Z,24.01
2017-09-04T11:06:24.255Z,23.85
2017-09-04T11:07:25.698Z,24.32
2017-09-04T11:08:27.131Z,24.22
2017-09-04T11:09:28.567Z,24.27
2017-09-04T11:10:29.999Z,24.17
2017-09-04T11:11:31.420Z,23.98
2017-09-04T11:12:32.856Z,24.04
2017-09-04T11:13:34.286Z,24.17
2017-09-04T11:14:35.716Z,24.44
2017-09-04T11:15:37.174Z,24.57
2017-09-04T11:16:38.615Z,24.59
2017-09-04T11:17:40.048Z,24.69
2017-09-04T11:18:41.473Z,24.71
2017-09-04T11:19:42.905Z,24.79
2017-09-04T11:20:44.329Z,24.68
2017-09-04T11:21:45.763Z,24.83
2017-09-04T11:22:47.259Z,24.77
2017-09-04T11:23:48.696Z,24.95
2017-09-04T11:24:50.123Z,25.19
2017-09-04T11:25:51.563Z,25.01
2017-09-04T11:26:52.994Z,25.15
2017-09-04T11:27:54.426Z,25.10
2017-09-04T11:28:55.869Z,25.13
2017-09-04T11:29:57.307Z,25.10
2017-09-04T11:30:58.740Z,25.39
2017-09-04T11:32:00.180Z,25.37
2017-09-04T11:33:01.618Z,25.61
2017-09-04T11:34:03.057Z,25.53
2017-09-04T11:35:04.479Z,24.92
2017-09-04T11:36:05.937Z,25.19
2017-09-04T11:37:07.367Z,25.43
2017-09-04T11:38:08.801Z,25.61
2017-09-04T11:39:10.234Z,25.64
2017-09-04T11:40:11.672Z,25.32
2017-09-04T11:41:13.105Z,25.53
2017-09-04T11:42:14.530Z,24.82
2017-09-04T11:43:15.963Z,24.88
2017-09-04T11:44:17.396Z,24.50
2017-09-04T11:45:18.830Z,24.24
2017-09-04T11:46:20.253Z,23.94
2017-09-04T11:47:21.687Z,23.82
2017-09-04T11:48:23.117Z,23.47
2017-09-04T11:49:24.551Z,23.08
2017-09-04T11:50:25.992Z,23.02
2017-09-04T11:51:27.426Z,23.12
2017-09-04T11:52:28.856Z,23.60
2017-09-04T11:53:30.305Z,23.67
2017-09-04T11:54:31.728Z,24.23
2017-09-04T11:55:33.169Z,24.22
2017-09-04T11:56:34.608Z,24.38
2017-09-04T11:57:36.036Z,24.75
2017-09-04T11:58:37.473Z,25.05
2017-09-04T11:59:38.905Z,25.30
2017-09-04T12:00:40.334Z,25.12
2017-09-04T12:01:41.762Z,25.22
2017-09-04T12:02:43.192Z,25.49
2017-09-04T12:03:44.631Z,25.50
2017-09-04T12:04:46.066Z,25.44
2017-09-04T12:05:47.518Z,25.02
2017-09-04T12:06:48.958Z,24.47
2017-09-04T12:07:50.396Z,24.22
2017-09-04T12:08:51.817Z,24.12
2017-09-04T12:09:53.275Z,24.38
2017-09-04T12:10:54.706Z,24.37
2017-09-04T12:11:56.138Z,24.39
2017-09-04T12:12:57.585Z,24.80
2017-09-04T12:13:59.026Z,24.92
2017-09-04T12:15:00.458Z,25.24
2017-09-04T12:16:01.901Z,24.50
2017-09-04T12:17:03.354Z,24.63
2017-09-04T12:18:04.778Z,24.67
2017-09-04T12:19:06.223Z,24.97
2017-09-04T12:20:07.654Z,25.24
2017-09-04T12:21:09.097Z,25.30
2017-09-04T12:22:10.525Z,25.65
2017-09-04T12:23:11.956Z,25.87
2017-09-04T12:24:13.404Z,25.98
2017-09-04T12:25:14.834Z,25.79
2017-09-04T12:26:16.258Z,25.82
2017-09-04T12:27:17.684Z,25.65
2017-09-04T12:28:19.115Z,25.62
2017-09-04T12:29:20.542Z,25.82
2017-09-04T12:30:21.976Z,25.64
2017-09-04T12:31:23.404Z,25.53
2017-09-04T12:32:24.843Z,25.02
2017-09-04T12:33:26.272Z,24.95
2017-09-04T12:34:27.709Z,24.88
2017-09-04T12:35:29.146Z,24.67
2017-09-04T12:36:30.571Z,24.44
2017-09-04T12:37:31.994Z,24.27
2017-09-04T12:38:33.458Z,24.35
2017-09-04T12:39:34.862Z,24.38
2017-09-04T12:40:36.296Z,24.42
2017-09-04T12:41:37.722Z,24.31
2017-09-04T12:42:39.151Z,24.41
2017-09-04T12:43:40.583Z,24.35
2017-09-04T12:44:42.013Z,24.64
2017-09-04T12:45:43.440Z,24.49
2017-09-04T12:46:44.877Z,24.52
2017-09-04T12:47:46.312Z,24.75
2017-09-04T12:48:47.762Z,24.91
2017-09-04T12:49:49.196Z,24.75
2017-09-04T12:50:50.624Z,24.49
2017-09-04T12:51:52.054Z,24.35
2017-09-04T12:52:53.474Z,23.98
2017-09-04T12:53:54.905Z,23.68
2017-09-04T12:54:56.345Z,23.65
2017-09-04T12:55:57.768Z,23.71
2017-09-04T12:56:59.197Z,23.20
2017-09-04T12:58:00.621Z,23.04
2017-09-04T12:59:02.061Z,23.01
2017-09-04T13:00:03.488Z,23.02
2017-09-04T13:01:04.916Z,22.92
2017-09-04T13:02:06.344Z,23.26
2017-09-04T13:03:07.783Z,23.27
2017-09-04T13:04:09.218Z,23.08
2017-09-04T13:05:10.644Z,22.99
2017-09-04T13:06:12.083Z,22.87
2017-09-04T13:07:13.516Z,23.38
2017-09-04T13:08:15.035Z,23.85
2017-09-04T13:09:16.467Z,24.00
2017-09-04T13:10:17.893Z,24.45
2017-09-04T13:11:19.369Z,24.59